Temecula, California
Current Conditions -  °F | °C
As of 10:35 PM on Sunday 23 Nov 2014 (Local Time) from KF70 Reporting Station
Clear Clear  
Wind Chill: 50°   Ceiling: Unl
Heat Index: 50°   Visibility: 10mi
Dew Point: 19°   Wind: 3mph
Humidity: 30%   Direction: 30°NNE
Pressure: 30.19"   Gusts: NA
Location:  33.5°N, 117.16°W
Report Text: KF70 240635Z AUTO 03003KT 10SM CLR 10/M07 A3019 RMK AO1
Loading
Personal Weather Stations






























Interactive Weather Map New forecast layout! Learn more

10-Day Weather Forecast

Advertisements
Track Severe Weather on mobile